sensor_id;sensor_type;location;lat;lon;timestamp;pressure;altitude;pressure_sealevel;temperature;humidity
18858;BME280;9558;50.178;8.370;2023-04-29T00:01:56;97882.72;;;9.83;100.00
18858;BME280;9558;50.178;8.370;2023-04-29T00:04:44;97892.59;;;9.80;100.00
18858;BME280;9558;50.178;8.370;2023-04-29T00:07:31;97890.19;;;9.78;100.00
18858;BME280;9558;50.178;8.370;2023-04-29T00:10:18;97889.91;;;9.73;100.00
18858;BME280;9558;50.178;8.370;2023-04-29T00:13:05;97888.91;;;9.74;100.00
18858;BME280;9558;50.178;8.370;2023-04-29T00:15:51;97894.44;;;9.71;100.00
18858;BME280;9558;50.178;8.370;2023-04-29T00:18:39;97895.25;;;9.72;100.00
18858;BME280;9558;50.178;8.370;2023-04-29T00:21:27;97891.50;;;9.74;100.00
18858;BME280;9558;50.178;8.370;2023-04-29T00:24:14;97892.75;;;9.78;100.00
18858;BME280;9558;50.178;8.370;2023-04-29T00:27:00;97896.59;;;9.82;100.00
18858;BME280;9558;50.178;8.370;2023-04-29T00:29:47;97885.91;;;9.85;100.00
18858;BME280;9558;50.178;8.370;2023-04-29T00:32:34;97889.91;;;9.88;100.00
18858;BME280;9558;50.178;8.370;2023-04-29T00:35:22;97900.72;;;9.92;100.00
18858;BME280;9558;50.178;8.370;2023-04-29T00:38:09;97896.97;;;9.94;100.00
18858;BME280;9558;50.178;8.370;2023-04-29T00:40:56;97893.88;;;9.99;100.00
18858;BME280;9558;50.178;8.370;2023-04-29T00:43:43;97893.69;;;10.00;100.00
18858;BME280;9558;50.178;8.370;2023-04-29T00:46:30;97888.94;;;10.04;100.00
18858;BME280;9558;50.178;8.370;2023-04-29T00:49:16;97883.78;;;10.04;100.00
18858;BME280;9558;50.178;8.370;2023-04-29T00:52:05;97889.31;;;10.01;100.00
18858;BME280;9558;50.178;8.370;2023-04-29T00:54:52;97893.31;;;10.03;100.00
18858;BME280;9558;50.178;8.370;2023-04-29T00:57:39;97890.56;;;10.05;100.00
18858;BME280;9558;50.178;8.370;2023-04-29T01:00:27;97901.50;;;10.07;100.00
18858;BME280;9558;50.178;8.370;2023-04-29T01:03:14;97896.53;;;10.06;100.00
18858;BME280;9558;50.178;8.370;2023-04-29T01:06:08;97894.56;;;10.08;100.00
18858;BME280;9558;50.178;8.370;2023-04-29T01:09:17;97891.81;;;10.09;100.00
18858;BME280;9558;50.178;8.370;2023-04-29T01:12:14;97898.22;;;10.13;100.00
18858;BME280;9558;50.178;8.370;2023-04-29T01:15:11;97891.88;;;10.16;100.00
18858;BME280;9558;50.178;8.370;2023-04-29T01:18:04;97899.47;;;10.17;100.00
18858;BME280;9558;50.178;8.370;2023-04-29T01:20:53;97898.28;;;10.20;100.00
18858;BME280;9558;50.178;8.370;2023-04-29T01:23:42;97896.53;;;10.20;100.00
18858;BME280;9558;50.178;8.370;2023-04-29T01:26:31;97896.06;;;10.17;100.00
18858;BME280;9558;50.178;8.370;2023-04-29T01:29:24;97890.72;;;10.18;100.00
18858;BME280;9558;50.178;8.370;2023-04-29T01:32:17;97893.94;;;10.20;100.00
18858;BME280;9558;50.178;8.370;2023-04-29T01:35:12;97901.16;;;10.25;100.00
18858;BME280;9558;50.178;8.370;2023-04-29T01:38:14;97897.22;;;10.29;100.00
18858;BME280;9558;50.178;8.370;2023-04-29T01:41:10;97899.94;;;10.36;100.00
18858;BME280;9558;50.178;8.370;2023-04-29T01:44:01;97905.72;;;10.38;100.00
18858;BME280;9558;50.178;8.370;2023-04-29T01:46:49;97902.59;;;10.43;100.00
18858;BME280;9558;50.178;8.370;2023-04-29T01:49:37;97907.84;;;10.49;100.00
18858;BME280;9558;50.178;8.370;2023-04-29T01:52:24;97905.69;;;10.53;100.00
18858;BME280;9558;50.178;8.370;2023-04-29T01:55:12;97907.13;;;10.55;100.00
18858;BME280;9558;50.178;8.370;2023-04-29T01:58:00;97909.25;;;10.67;100.00
18858;BME280;9558;50.178;8.370;2023-04-29T02:00:47;97904.88;;;10.67;100.00
18858;BME280;9558;50.178;8.370;2023-04-29T02:03:34;97905.50;;;10.69;100.00
18858;BME280;9558;50.178;8.370;2023-04-29T02:06:21;97906.94;;;10.72;100.00
18858;BME280;9558;50.178;8.370;2023-04-29T02:09:09;97910.19;;;10.81;100.00
18858;BME280;9558;50.178;8.370;2023-04-29T02:11:56;97902.84;;;10.84;100.00
18858;BME280;9558;50.178;8.370;2023-04-29T02:14:44;97901.31;;;10.90;100.00
18858;BME280;9558;50.178;8.370;2023-04-29T02:17:32;97904.34;;;10.94;100.00
18858;BME280;9558;50.178;8.370;2023-04-29T02:20:19;97904.78;;;10.97;100.00
18858;BME280;9558;50.178;8.370;2023-04-29T02:23:05;97910.41;;;11.01;100.00
18858;BME280;9558;50.178;8.370;2023-04-29T02:25:52;97913.25;;;11.06;100.00
18858;BME280;9558;50.178;8.370;2023-04-29T02:28:39;97911.69;;;11.12;100.00
18858;BME280;9558;50.178;8.370;2023-04-29T02:31:28;97916.16;;;11.18;100.00
18858;BME280;9558;50.178;8.370;2023-04-29T02:34:14;97919.16;;;11.21;100.00
18858;BME280;9558;50.178;8.370;2023-04-29T02:37:01;97919.41;;;11.27;100.00
18858;BME280;9558;50.178;8.370;2023-04-29T02:39:49;97923.25;;;11.31;100.00
18858;BME280;9558;50.178;8.370;2023-04-29T02:42:35;97926.25;;;11.34;100.00
18858;BME280;9558;50.178;8.370;2023-04-29T02:45:22;97929.66;;;11.35;100.00
18858;BME280;9558;50.178;8.370;2023-04-29T02:48:10;97932.84;;;11.37;100.00
18858;BME280;9558;50.178;8.370;2023-04-29T02:50:57;97929.50;;;11.43;100.00
18858;BME280;9558;50.178;8.370;2023-04-29T02:53:44;97929.94;;;11.47;100.00
18858;BME280;9558;50.178;8.370;2023-04-29T02:56:31;97940.91;;;11.49;100.00
18858;BME280;9558;50.178;8.370;2023-04-29T02:59:17;97936.38;;;11.51;100.00
18858;BME280;9558;50.178;8.370;2023-04-29T03:02:04;97934.38;;;11.53;100.00
18858;BME280;9558;50.178;8.370;2023-04-29T03:04:53;97937.59;;;11.55;100.00
18858;BME280;9558;50.178;8.370;2023-04-29T03:07:39;97936.00;;;11.54;100.00
18858;BME280;9558;50.178;8.370;2023-04-29T03:10:26;97931.59;;;11.54;100.00
18858;BME280;9558;50.178;8.370;2023-04-29T03:13:13;97945.19;;;11.56;100.00
18858;BME280;9558;50.178;8.370;2023-04-29T03:16:00;97940.00;;;11.56;100.00
18858;BME280;9558;50.178;8.370;2023-04-29T03:18:47;97937.41;;;11.56;100.00
18858;BME280;9558;50.178;8.370;2023-04-29T03:21:35;97940.78;;;11.57;100.00
18858;BME280;9558;50.178;8.370;2023-04-29T03:24:22;97940.00;;;11.56;100.00
18858;BME280;9558;50.178;8.370;2023-04-29T03:27:09;97945.38;;;11.55;100.00
18858;BME280;9558;50.178;8.370;2023-04-29T03:29:56;97939.03;;;11.57;100.00
18858;BME280;9558;50.178;8.370;2023-04-29T03:32:43;97940.38;;;11.53;100.00
18858;BME280;9558;50.178;8.370;2023-04-29T03:35:30;97933.59;;;11.52;100.00
18858;BME280;9558;50.178;8.370;2023-04-29T03:38:18;97938.78;;;11.52;100.00
18858;BME280;9558;50.178;8.370;2023-04-29T03:41:04;97942.97;;;11.53;100.00
18858;BME280;9558;50.178;8.370;2023-04-29T03:43:52;97947.53;;;11.51;100.00
18858;BME280;9558;50.178;8.370;2023-04-29T03:46:39;97942.34;;;11.51;100.00
18858;BME280;9558;50.178;8.370;2023-04-29T03:49:26;97952.50;;;11.53;100.00
18858;BME280;9558;50.178;8.370;2023-04-29T03:52:12;97955.94;;;11.53;100.00
18858;BME280;9558;50.178;8.370;2023-04-29T03:55:02;97966.41;;;11.45;100.00
18858;BME280;9558;50.178;8.370;2023-04-29T03:57:49;97961.78;;;11.40;100.00
18858;BME280;9558;50.178;8.370;2023-04-29T04:00:35;97961.13;;;11.32;100.00
18858;BME280;9558;50.178;8.370;2023-04-29T04:03:22;97963.44;;;11.27;100.00
18858;BME280;9558;50.178;8.370;2023-04-29T04:06:10;97980.34;;;11.22;100.00
18858;BME280;9558;50.178;8.370;2023-04-29T04:08:57;97978.31;;;11.18;100.00
18858;BME280;9558;50.178;8.370;2023-04-29T04:11:45;97981.47;;;11.13;100.00
18858;BME280;9558;50.178;8.370;2023-04-29T04:14:32;97986.00;;;11.11;100.00
18858;BME280;9558;50.178;8.370;2023-04-29T04:17:18;97990.56;;;11.09;100.00
18858;BME280;9558;50.178;8.370;2023-04-29T04:20:06;97985.75;;;11.06;100.00
18858;BME280;9558;50.178;8.370;2023-04-29T04:22:53;97987.72;;;11.04;100.00
18858;BME280;9558;50.178;8.370;2023-04-29T04:25:44;97987.72;;;11.04;100.00
18858;BME280;9558;50.178;8.370;2023-04-29T04:28:32;97991.47;;;11.01;100.00
18858;BME280;9558;50.178;8.370;2023-04-29T04:31:19;97994.06;;;11.01;100.00
18858;BME280;9558;50.178;8.370;2023-04-29T04:34:06;97990.69;;;11.01;100.00
18858;BME280;9558;50.178;8.370;2023-04-29T04:36:53;97990.03;;;10.99;100.00
18858;BME280;9558;50.178;8.370;2023-04-29T04:39:40;97997.47;;;11.02;100.00
18858;BME280;9558;50.178;8.370;2023-04-29T04:42:27;97995.66;;;11.02;100.00
18858;BME280;9558;50.178;8.370;2023-04-29T04:45:15;98001.63;;;11.03;100.00
18858;BME280;9558;50.178;8.370;2023-04-29T04:48:02;98003.63;;;11.01;100.00
18858;BME280;9558;50.178;8.370;2023-04-29T04:50:49;98003.16;;;10.97;100.00
18858;BME280;9558;50.178;8.370;2023-04-29T04:53:36;98005.56;;;10.99;100.00
18858;BME280;9558;50.178;8.370;2023-04-29T04:56:25;98002.38;;;10.97;100.00
18858;BME280;9558;50.178;8.370;2023-04-29T04:59:12;98008.53;;;10.96;100.00
18858;BME280;9558;50.178;8.370;2023-04-29T05:02:00;98006.31;;;10.93;100.00
18858;BME280;9558;50.178;8.370;2023-04-29T05:04:47;98006.94;;;10.95;100.00
18858;BME280;9558;50.178;8.370;2023-04-29T05:07:34;98013.72;;;10.96;100.00
18858;BME280;9558;50.178;8.370;2023-04-29T05:10:21;98015.94;;;10.99;100.00
18858;BME280;9558;50.178;8.370;2023-04-29T05:13:10;98020.78;;;11.02;100.00
18858;BME280;9558;50.178;8.370;2023-04-29T05:16:01;98028.78;;;11.07;100.00
18858;BME280;9558;50.178;8.370;2023-04-29T05:18:49;98034.47;;;11.17;100.00
18858;BME280;9558;50.178;8.370;2023-04-29T05:21:36;98026.00;;;11.23;100.00
18858;BME280;9558;50.178;8.370;2023-04-29T05:24:22;98030.06;;;11.33;100.00
18858;BME280;9558;50.178;8.370;2023-04-29T05:27:09;98037.53;;;11.43;100.00
18858;BME280;9558;50.178;8.370;2023-04-29T05:29:56;98039.94;;;11.44;100.00
18858;BME280;9558;50.178;8.370;2023-04-29T05:32:43;98047.00;;;11.50;100.00
18858;BME280;9558;50.178;8.370;2023-04-29T05:35:31;98047.97;;;11.49;100.00
18858;BME280;9558;50.178;8.370;2023-04-29T05:38:18;98055.13;;;11.47;100.00
18858;BME280;9558;50.178;8.370;2023-04-29T05:41:05;98060.94;;;11.49;100.00
18858;BME280;9558;50.178;8.370;2023-04-29T05:43:52;98057.19;;;11.52;100.00
18858;BME280;9558;50.178;8.370;2023-04-29T05:46:38;98061.63;;;11.58;100.00
18858;BME280;9558;50.178;8.370;2023-04-29T05:49:25;98067.59;;;11.58;100.00
18858;BME280;9558;50.178;8.370;2023-04-29T05:52:13;98072.38;;;11.55;100.00
18858;BME280;9558;50.178;8.370;2023-04-29T05:55:00;98073.53;;;11.52;100.00
18858;BME280;9558;50.178;8.370;2023-04-29T05:57:47;98080.25;;;11.47;100.00
18858;BME280;9558;50.178;8.370;2023-04-29T06:00:34;98086.59;;;11.44;100.00
18858;BME280;9558;50.178;8.370;2023-04-29T06:03:20;98089.38;;;11.43;100.00
18858;BME280;9558;50.178;8.370;2023-04-29T06:06:07;98094.13;;;11.39;100.00
18858;BME280;9558;50.178;8.370;2023-04-29T06:08:56;98099.66;;;11.36;100.00
18858;BME280;9558;50.178;8.370;2023-04-29T06:11:42;98097.06;;;11.36;100.00
18858;BME280;9558;50.178;8.370;2023-04-29T06:14:29;98098.44;;;11.32;100.00
18858;BME280;9558;50.178;8.370;2023-04-29T06:17:16;98108.94;;;11.30;100.00
18858;BME280;9558;50.178;8.370;2023-04-29T06:20:03;98107.00;;;11.32;100.00
18858;BME280;9558;50.178;8.370;2023-04-29T06:22:50;98102.59;;;11.33;100.00
18858;BME280;9558;50.178;8.370;2023-04-29T06:25:38;98100.88;;;11.40;100.00
18858;BME280;9558;50.178;8.370;2023-04-29T06:28:25;98100.09;;;11.39;100.00
18858;BME280;9558;50.178;8.370;2023-04-29T06:31:12;98106.53;;;11.44;100.00
18858;BME280;9558;50.178;8.370;2023-04-29T06:33:59;98115.53;;;11.48;100.00
18858;BME280;9558;50.178;8.370;2023-04-29T06:36:45;98111.78;;;11.50;100.00
18858;BME280;9558;50.178;8.370;2023-04-29T06:39:32;98119.81;;;11.55;100.00
18858;BME280;9558;50.178;8.370;2023-04-29T06:42:20;98130.25;;;11.62;100.00
18858;BME280;9558;50.178;8.370;2023-04-29T06:45:07;98131.50;;;11.66;100.00
18858;BME280;9558;50.178;8.370;2023-04-29T06:47:54;98137.75;;;11.72;100.00
18858;BME280;9558;50.178;8.370;2023-04-29T06:50:48;98139.22;;;11.81;100.00
18858;BME280;9558;50.178;8.370;2023-04-29T06:53:34;98137.50;;;11.88;100.00
18858;BME280;9558;50.178;8.370;2023-04-29T06:56:21;98142.13;;;11.93;100.00
18858;BME280;9558;50.178;8.370;2023-04-29T06:59:10;98146.81;;;11.98;100.00
18858;BME280;9558;50.178;8.370;2023-04-29T07:01:57;98151.81;;;11.99;100.00
18858;BME280;9558;50.178;8.370;2023-04-29T07:04:43;98151.19;;;11.97;99.18
18858;BME280;9558;50.178;8.370;2023-04-29T07:07:30;98158.97;;;11.97;100.00
18858;BME280;9558;50.178;8.370;2023-04-29T07:10:17;98159.78;;;11.98;99.70
18858;BME280;9558;50.178;8.370;2023-04-29T07:13:04;98167.28;;;11.92;98.28
18858;BME280;9558;50.178;8.370;2023-04-29T07:15:52;98163.25;;;11.90;98.80
18858;BME280;9558;50.178;8.370;2023-04-29T07:18:39;98172.03;;;11.89;99.31
18858;BME280;9558;50.178;8.370;2023-04-29T07:21:26;98177.75;;;11.84;98.70
18858;BME280;9558;50.178;8.370;2023-04-29T07:24:12;98183.50;;;11.80;99.33
18858;BME280;9558;50.178;8.370;2023-04-29T07:26:59;98188.59;;;11.73;98.62
18858;BME280;9558;50.178;8.370;2023-04-29T07:29:46;98198.06;;;11.66;99.34
18858;BME280;9558;50.178;8.370;2023-04-29T07:32:34;98199.00;;;11.58;99.35
18858;BME280;9558;50.178;8.370;2023-04-29T07:35:21;98195.50;;;11.51;99.29
18858;BME280;9558;50.178;8.370;2023-04-29T07:38:08;98194.25;;;11.47;99.75
18858;BME280;9558;50.178;8.370;2023-04-29T07:40:55;98196.16;;;11.38;100.00
18858;BME280;9558;50.178;8.370;2023-04-29T07:43:42;98204.91;;;11.37;100.00
18858;BME280;9558;50.178;8.370;2023-04-29T07:46:29;98206.69;;;11.36;100.00
18858;BME280;9558;50.178;8.370;2023-04-29T07:49:17;98206.50;;;11.38;100.00
18858;BME280;9558;50.178;8.370;2023-04-29T07:52:04;98208.91;;;11.39;100.00
18858;BME280;9558;50.178;8.370;2023-04-29T07:54:52;98207.78;;;11.42;100.00
18858;BME280;9558;50.178;8.370;2023-04-29T07:57:40;98210.00;;;11.45;100.00
18858;BME280;9558;50.178;8.370;2023-04-29T08:00:27;98217.13;;;11.43;100.00
18858;BME280;9558;50.178;8.370;2023-04-29T08:03:14;98217.78;;;11.45;100.00
18858;BME280;9558;50.178;8.370;2023-04-29T08:06:02;98228.50;;;11.42;100.00
18858;BME280;9558;50.178;8.370;2023-04-29T08:08:49;98226.16;;;11.47;100.00
18858;BME280;9558;50.178;8.370;2023-04-29T08:11:36;98234.63;;;11.56;100.00
18858;BME280;9558;50.178;8.370;2023-04-29T08:14:24;98231.53;;;11.61;100.00
18858;BME280;9558;50.178;8.370;2023-04-29T08:17:11;98237.31;;;11.63;100.00
18858;BME280;9558;50.178;8.370;2023-04-29T08:19:57;98243.34;;;11.63;100.00
18858;BME280;9558;50.178;8.370;2023-04-29T08:22:46;98240.38;;;11.66;100.00
18858;BME280;9558;50.178;8.370;2023-04-29T08:25:33;98247.59;;;11.71;100.00
18858;BME280;9558;50.178;8.370;2023-04-29T08:28:19;98253.84;;;11.76;100.00
18858;BME280;9558;50.178;8.370;2023-04-29T08:31:06;98261.28;;;11.80;100.00
18858;BME280;9558;50.178;8.370;2023-04-29T08:33:55;98262.16;;;11.87;100.00
18858;BME280;9558;50.178;8.370;2023-04-29T08:36:43;98262.28;;;11.93;100.00
18858;BME280;9558;50.178;8.370;2023-04-29T08:39:31;98261.16;;;12.03;100.00
18858;BME280;9558;50.178;8.370;2023-04-29T08:42:20;98273.44;;;12.09;100.00
18858;BME280;9558;50.178;8.370;2023-04-29T08:45:14;98268.13;;;12.17;100.00
18858;BME280;9558;50.178;8.370;2023-04-29T08:48:02;98273.56;;;12.22;100.00
18858;BME280;9558;50.178;8.370;2023-04-29T08:50:49;98271.94;;;12.21;100.00
18858;BME280;9558;50.178;8.370;2023-04-29T08:53:35;98281.34;;;12.22;100.00
18858;BME280;9558;50.178;8.370;2023-04-29T08:56:24;98278.56;;;12.24;100.00
18858;BME280;9558;50.178;8.370;2023-04-29T08:59:13;98288.16;;;12.23;100.00
18858;BME280;9558;50.178;8.370;2023-04-29T09:01:59;98283.75;;;12.24;100.00
18858;BME280;9558;50.178;8.370;2023-04-29T09:04:48;98293.34;;;12.23;100.00
18858;BME280;9558;50.178;8.370;2023-04-29T09:07:38;98291.47;;;12.17;99.35
18858;BME280;9558;50.178;8.370;2023-04-29T09:10:26;98291.22;;;12.12;100.00
18858;BME280;9558;50.178;8.370;2023-04-29T09:13:23;98285.41;;;12.10;100.00
18858;BME280;9558;50.178;8.370;2023-04-29T09:16:11;98294.28;;;12.01;100.00
18858;BME280;9558;50.178;8.370;2023-04-29T09:18:57;98295.31;;;11.91;100.00
18858;BME280;9558;50.178;8.370;2023-04-29T09:21:52;98301.41;;;11.84;100.00
18858;BME280;9558;50.178;8.370;2023-04-29T09:24:39;98303.22;;;11.83;100.00
18858;BME280;9558;50.178;8.370;2023-04-29T09:27:28;98307.16;;;11.79;100.00
18858;BME280;9558;50.178;8.370;2023-04-29T09:30:16;98307.94;;;11.80;100.00
18858;BME280;9558;50.178;8.370;2023-04-29T09:33:05;98310.16;;;11.83;100.00
18858;BME280;9558;50.178;8.370;2023-04-29T09:35:53;98310.34;;;11.81;99.68
18858;BME280;9558;50.178;8.370;2023-04-29T09:38:52;98311.97;;;11.82;99.46
18858;BME280;9558;50.178;8.370;2023-04-29T09:41:41;98311.25;;;11.88;99.78
18858;BME280;9558;50.178;8.370;2023-04-29T09:44:29;98314.56;;;11.97;99.67
18858;BME280;9558;50.178;8.370;2023-04-29T09:47:28;98318.16;;;12.11;98.95
18858;BME280;9558;50.178;8.370;2023-04-29T09:50:15;98316.69;;;12.23;98.81
18858;BME280;9558;50.178;8.370;2023-04-29T09:53:04;98319.81;;;12.34;98.74
18858;BME280;9558;50.178;8.370;2023-04-29T09:56:00;98323.78;;;12.51;96.17
18858;BME280;9558;50.178;8.370;2023-04-29T09:58:48;98323.69;;;12.59;96.60
18858;BME280;9558;50.178;8.370;2023-04-29T10:01:35;98330.34;;;12.69;93.80
18858;BME280;9558;50.178;8.370;2023-04-29T10:04:24;98328.00;;;12.74;91.21
18858;BME280;9558;50.178;8.370;2023-04-29T10:07:13;98333.00;;;12.75;88.90
18858;BME280;9558;50.178;8.370;2023-04-29T10:10:01;98325.50;;;12.81;91.15
18858;BME280;9558;50.178;8.370;2023-04-29T10:12:51;98331.59;;;12.94;92.26
18858;BME280;9558;50.178;8.370;2023-04-29T10:15:45;98335.75;;;13.10;92.21
18858;BME280;9558;50.178;8.370;2023-04-29T10:18:36;98337.41;;;13.18;91.51
18858;BME280;9558;50.178;8.370;2023-04-29T10:21:26;98334.28;;;13.29;90.80
18858;BME280;9558;50.178;8.370;2023-04-29T10:24:16;98340.19;;;13.38;88.93
18858;BME280;9558;50.178;8.370;2023-04-29T10:27:06;98336.88;;;13.51;89.54
18858;BME280;9558;50.178;8.370;2023-04-29T10:29:53;98328.78;;;13.68;89.45
18858;BME280;9558;50.178;8.370;2023-04-29T10:32:42;98329.88;;;13.87;89.10
18858;BME280;9558;50.178;8.370;2023-04-29T10:35:29;98337.41;;;14.10;87.78
18858;BME280;9558;50.178;8.370;2023-04-29T10:38:23;98334.06;;;14.29;86.66
18858;BME280;9558;50.178;8.370;2023-04-29T10:41:18;98330.91;;;14.41;86.42
18858;BME280;9558;50.178;8.370;2023-04-29T10:44:05;98333.94;;;14.51;85.10
18858;BME280;9558;50.178;8.370;2023-04-29T10:47:19;98336.59;;;14.64;84.31
18858;BME280;9558;50.178;8.370;2023-04-29T10:50:06;98343.84;;;14.76;83.21
18858;BME280;9558;50.178;8.370;2023-04-29T10:52:54;98346.88;;;14.79;81.56
18858;BME280;9558;50.178;8.370;2023-04-29T10:55:46;98340.66;;;14.94;83.27
18858;BME280;9558;50.178;8.370;2023-04-29T10:58:35;98351.88;;;14.94;81.18
18858;BME280;9558;50.178;8.370;2023-04-29T11:01:39;98340.25;;;14.90;81.62
18858;BME280;9558;50.178;8.370;2023-04-29T11:04:27;98344.47;;;14.91;81.95
18858;BME280;9558;50.178;8.370;2023-04-29T11:07:25;98338.44;;;14.97;82.01
18858;BME280;9558;50.178;8.370;2023-04-29T11:10:13;98344.28;;;14.99;82.25
18858;BME280;9558;50.178;8.370;2023-04-29T11:13:21;98343.88;;;14.89;80.77
18858;BME280;9558;50.178;8.370;2023-04-29T11:16:10;98341.06;;;14.84;81.61
18858;BME280;9558;50.178;8.370;2023-04-29T11:19:04;98338.03;;;14.74;81.28
18858;BME280;9558;50.178;8.370;2023-04-29T11:22:10;98345.22;;;14.65;81.43
18858;BME280;9558;50.178;8.370;2023-04-29T11:24:59;98339.38;;;14.56;80.45
18858;BME280;9558;50.178;8.370;2023-04-29T11:27:46;98344.56;;;14.49;80.40
18858;BME280;9558;50.178;8.370;2023-04-29T11:30:35;98340.97;;;14.50;80.92
18858;BME280;9558;50.178;8.370;2023-04-29T11:33:23;98340.38;;;14.55;80.68
18858;BME280;9558;50.178;8.370;2023-04-29T11:36:10;98345.78;;;14.60;81.60
18858;BME280;9558;50.178;8.370;2023-04-29T11:38:59;98342.81;;;14.63;81.90
18858;BME280;9558;50.178;8.370;2023-04-29T11:41:45;98343.16;;;14.60;81.21
18858;BME280;9558;50.178;8.370;2023-04-29T11:44:33;98350.19;;;14.60;80.55
18858;BME280;9558;50.178;8.370;2023-04-29T11:47:25;98353.78;;;14.52;81.28
18858;BME280;9558;50.178;8.370;2023-04-29T11:50:12;98369.34;;;14.39;80.79
18858;BME280;9558;50.178;8.370;2023-04-29T11:53:01;98361.09;;;14.28;81.54
18858;BME280;9558;50.178;8.370;2023-04-29T11:55:48;98362.09;;;14.21;82.03
18858;BME280;9558;50.178;8.370;2023-04-29T11:58:35;98357.81;;;14.13;82.45
18858;BME280;9558;50.178;8.370;2023-04-29T12:01:21;98365.44;;;14.14;82.53
18858;BME280;9558;50.178;8.370;2023-04-29T12:04:10;98366.25;;;14.15;82.69
18858;BME280;9558;50.178;8.370;2023-04-29T12:06:56;98358.44;;;14.15;83.07
18858;BME280;9558;50.178;8.370;2023-04-29T12:09:45;98358.88;;;14.25;83.88
18858;BME280;9558;50.178;8.370;2023-04-29T12:12:32;98355.13;;;14.41;84.08
18858;BME280;9558;50.178;8.370;2023-04-29T12:15:21;98361.59;;;14.52;82.95
18858;BME280;9558;50.178;8.370;2023-04-29T12:18:08;98357.06;;;14.67;83.04
18858;BME280;9558;50.178;8.370;2023-04-29T12:20:56;98359.06;;;14.79;81.41
18858;BME280;9558;50.178;8.370;2023-04-29T12:23:44;98357.09;;;14.81;79.21
18858;BME280;9558;50.178;8.370;2023-04-29T12:26:31;98372.31;;;14.84;79.27
18858;BME280;9558;50.178;8.370;2023-04-29T12:29:20;98369.94;;;14.89;79.39
18858;BME280;9558;50.178;8.370;2023-04-29T12:32:11;98371.94;;;14.80;78.69
18858;BME280;9558;50.178;8.370;2023-04-29T12:34:58;98367.09;;;14.84;80.41
18858;BME280;9558;50.178;8.370;2023-04-29T12:37:49;98366.31;;;14.97;81.19
18858;BME280;9558;50.178;8.370;2023-04-29T12:40:36;98371.53;;;15.10;79.76
18858;BME280;9558;50.178;8.370;2023-04-29T12:43:25;98384.56;;;15.10;77.65
18858;BME280;9558;50.178;8.370;2023-04-29T12:46:12;98386.78;;;15.07;78.36
18858;BME280;9558;50.178;8.370;2023-04-29T12:49:00;98381.97;;;15.03;77.25
18858;BME280;9558;50.178;8.370;2023-04-29T12:51:47;98379.38;;;15.03;78.49
18858;BME280;9558;50.178;8.370;2023-04-29T12:54:35;98386.38;;;14.96;77.92
18858;BME280;9558;50.178;8.370;2023-04-29T12:57:22;98390.56;;;14.97;79.38
18858;BME280;9558;50.178;8.370;2023-04-29T13:00:11;98393.19;;;14.97;78.87
18858;BME280;9558;50.178;8.370;2023-04-29T13:02:59;98395.59;;;14.92;77.36
18858;BME280;9558;50.178;8.370;2023-04-29T13:05:45;98390.78;;;14.89;77.64
18858;BME280;9558;50.178;8.370;2023-04-29T13:08:35;98395.41;;;14.94;78.44
18858;BME280;9558;50.178;8.370;2023-04-29T13:11:23;98394.38;;;14.88;77.15
18858;BME280;9558;50.178;8.370;2023-04-29T13:14:10;98391.94;;;14.80;77.64
18858;BME280;9558;50.178;8.370;2023-04-29T13:16:57;98392.75;;;14.74;77.76
18858;BME280;9558;50.178;8.370;2023-04-29T13:19:44;98398.53;;;14.69;79.17
18858;BME280;9558;50.178;8.370;2023-04-29T13:22:31;98402.34;;;14.66;79.35
18858;BME280;9558;50.178;8.370;2023-04-29T13:25:18;98407.94;;;14.63;79.27
18858;BME280;9558;50.178;8.370;2023-04-29T13:28:06;98407.09;;;14.56;79.10
18858;BME280;9558;50.178;8.370;2023-04-29T13:30:53;98409.06;;;14.54;80.39
18858;BME280;9558;50.178;8.370;2023-04-29T13:33:40;98408.47;;;14.52;80.47
18858;BME280;9558;50.178;8.370;2023-04-29T13:36:27;98404.03;;;14.46;80.50
18858;BME280;9558;50.178;8.370;2023-04-29T13:39:14;98414.44;;;14.39;80.57
18858;BME280;9558;50.178;8.370;2023-04-29T13:42:02;98413.41;;;14.33;81.32
18858;BME280;9558;50.178;8.370;2023-04-29T13:44:50;98419.75;;;14.24;81.82
18858;BME280;9558;50.178;8.370;2023-04-29T13:47:38;98417.69;;;14.13;82.27
18858;BME280;9558;50.178;8.370;2023-04-29T13:50:25;98412.06;;;14.09;82.54
18858;BME280;9558;50.178;8.370;2023-04-29T13:53:11;98412.66;;;14.05;82.79
18858;BME280;9558;50.178;8.370;2023-04-29T13:55:58;98418.84;;;14.04;84.01
18858;BME280;9558;50.178;8.370;2023-04-29T13:58:45;98418.06;;;14.10;84.25
18858;BME280;9558;50.178;8.370;2023-04-29T14:01:33;98415.28;;;14.11;83.02
18858;BME280;9558;50.178;8.370;2023-04-29T14:04:20;98419.28;;;14.14;82.39
18858;BME280;9558;50.178;8.370;2023-04-29T14:07:06;98415.09;;;14.13;82.46
18858;BME280;9558;50.178;8.370;2023-04-29T14:09:53;98416.13;;;14.18;83.02
18858;BME280;9558;50.178;8.370;2023-04-29T14:12:40;98417.78;;;14.26;83.55
18858;BME280;9558;50.178;8.370;2023-04-29T14:15:27;98408.19;;;14.33;83.83
18858;BME280;9558;50.178;8.370;2023-04-29T14:18:15;98427.44;;;14.39;82.34
18858;BME280;9558;50.178;8.370;2023-04-29T14:21:02;98409.03;;;14.41;81.86
18858;BME280;9558;50.178;8.370;2023-04-29T14:23:49;98415.81;;;14.42;82.14
18858;BME280;9558;50.178;8.370;2023-04-29T14:26:36;98415.47;;;14.45;81.72
18858;BME280;9558;50.178;8.370;2023-04-29T14:29:23;98416.22;;;14.39;82.07
18858;BME280;9558;50.178;8.370;2023-04-29T14:32:10;98421.75;;;14.29;81.88
18858;BME280;9558;50.178;8.370;2023-04-29T14:34:58;98421.31;;;14.18;82.07
18858;BME280;9558;50.178;8.370;2023-04-29T14:37:44;98427.25;;;14.06;83.06
18858;BME280;9558;50.178;8.370;2023-04-29T14:40:31;98432.75;;;13.89;83.00
18858;BME280;9558;50.178;8.370;2023-04-29T14:43:18;98436.28;;;13.75;84.03
18858;BME280;9558;50.178;8.370;2023-04-29T14:46:05;98439.19;;;13.65;84.53
18858;BME280;9558;50.178;8.370;2023-04-29T14:48:51;98446.69;;;13.53;84.59
18858;BME280;9558;50.178;8.370;2023-04-29T14:51:40;98450.78;;;13.41;85.57
18858;BME280;9558;50.178;8.370;2023-04-29T14:54:26;98455.09;;;13.34;85.47
18858;BME280;9558;50.178;8.370;2023-04-29T14:57:13;98453.78;;;13.23;85.65